Time;durP1;ratioP1;P1;durP2;ratioP2;P2;SDS_P1;SDS_P2;PMS_P1;PMS_P2;Temp;Humidity;BMP_temperature;BMP_pressure;BME280_temperature;BME280_humidity;BME280_pressure;Samples;Min_cycle;Max_cycle;Signal;HPM_P1;HPM_P2
2024/01/19 00:01:18;;;;;;;16.55;8.02;;;;;;;-0.97;60.00;96823.47;5011808;28;20041;-88
2024/01/19 00:03:44;;;;;;;20.67;11.40;;;;;;;-1.06;59.50;96808.41;4996013;28;20117;-89
2024/01/19 00:06:10;;;;;;;24.58;14.70;;;;;;;-1.19;58.93;96788.63;5006594;28;20058;-88
2024/01/19 00:08:35;;;;;;;19.85;9.80;;;;;;;-1.08;59.52;96802.69;5007730;28;20033;-89
2024/01/19 00:11:00;;;;;;;15.35;7.60;;;;;;;-1.10;59.00;96823.31;5016825;28;20117;-88
2024/01/19 00:13:26;;;;;;;16.88;7.85;;;;;;;-1.29;59.90;96811.09;4998286;28;20022;-88
2024/01/19 00:15:52;;;;;;;18.70;8.73;;;;;;;-1.66;60.38;96779.59;5015272;28;20072;-88
2024/01/19 00:18:18;;;;;;;15.23;7.68;;;;;;;-1.39;60.85;96839.47;4999223;28;20030;-88
2024/01/19 00:20:43;;;;;;;15.63;7.80;;;;;;;-1.61;60.48;96805.38;5006268;28;20080;-88
2024/01/19 00:23:08;;;;;;;13.52;6.97;;;;;;;-1.41;60.52;96843.97;5024843;28;20024;-88
2024/01/19 00:25:34;;;;;;;16.13;6.63;;;;;;;-1.53;61.37;96841.03;4994726;28;20102;-89
2024/01/19 00:27:59;;;;;;;16.30;7.53;;;;;;;-1.62;61.41;96824.25;4997497;28;20029;-88
2024/01/19 00:30:25;;;;;;;15.00;7.60;;;;;;;-1.43;60.95;96836.47;5025811;28;20132;-88
2024/01/19 00:32:50;;;;;;;13.98;6.50;;;;;;;-1.52;60.79;96829.88;5024134;28;20085;-88
2024/01/19 00:35:15;;;;;;;15.05;7.63;;;;;;;-1.39;60.78;96855.59;4997033;28;20045;-88
2024/01/19 00:40:15;;;;;;;13.45;6.75;;;;;;;-1.23;61.40;96871.72;4986753;28;20030;-89
2024/01/19 00:42:42;;;;;;;15.80;7.53;;;;;;;-1.14;61.75;96880.84;4956485;28;20066;-89
2024/01/19 00:45:08;;;;;;;19.35;8.75;;;;;;;-1.40;61.48;96856.56;4974945;28;20058;-87
2024/01/19 00:47:34;;;;;;;17.77;8.45;;;;;;;-1.14;61.44;96889.31;4975341;28;20053;-89
2024/01/19 00:52:33;;;;;;;18.30;8.18;;;;;;;-1.24;61.14;96868.34;4986862;28;20138;-87
2024/01/19 00:54:58;;;;;;;19.00;8.63;;;;;;;-1.19;61.52;96890.81;4969551;28;20292;-87
2024/01/19 00:57:23;;;;;;;17.35;7.97;;;;;;;-1.34;61.63;96881.41;4963768;28;20046;-89
2024/01/19 00:59:49;;;;;;;18.73;8.88;;;;;;;-1.27;61.10;96899.34;4970333;28;20047;-87
2024/01/19 01:02:15;;;;;;;17.25;8.43;;;;;;;-1.15;61.49;96899.69;4965985;28;20046;-87
2024/01/19 01:04:40;;;;;;;15.43;8.18;;;;;;;-1.11;61.50;96893.28;4961592;28;20031;-87
2024/01/19 01:07:06;;;;;;;17.40;8.05;;;;;;;-1.10;61.58;96904.28;5518053;23;20111;-87
2024/01/19 02:13:30;;;;;;;12.77;6.47;;;;;;;-1.75;60.63;96988.97;5989088;23;20084;-88
2024/01/19 02:18:31;;;;;;;16.35;6.75;;;;;;;-1.82;60.92;96997.47;5529187;23;20045;-87
2024/01/19 02:20:59;;;;;;;12.73;6.57;;;;;;;-1.77;60.67;96993.44;4980288;28;20045;-88
2024/01/19 02:23:27;;;;;;;10.60;6.28;;;;;;;-1.94;60.88;96989.41;4995313;28;20038;-88
2024/01/19 02:25:53;;;;;;;18.85;7.72;;;;;;;-1.94;61.63;96997.06;4994190;28;20436;-88
2024/01/19 02:28:18;;;;;;;11.60;6.28;;;;;;;-2.16;60.86;96966.28;4987508;28;20223;-89
2024/01/19 02:30:44;;;;;;;13.80;6.53;;;;;;;-1.88;61.47;97007.41;4991178;28;20062;-87
2024/01/19 02:33:10;;;;;;;12.30;6.80;;;;;;;-1.85;61.61;97003.72;4974896;28;20049;-87
2024/01/19 02:35:35;;;;;;;13.23;6.28;;;;;;;-1.91;61.63;97005.19;4969470;28;20037;-88
2024/01/19 02:38:11;;;;;;;12.27;6.00;;;;;;;-2.07;61.74;96985.66;4973673;28;20039;-88
2024/01/19 02:40:41;;;;;;;14.48;6.85;;;;;;;-1.92;61.46;97013.00;4986001;28;20069;-88
2024/01/19 02:43:17;;;;;;;13.45;8.27;;;;;;;-2.00;61.75;97015.63;4964642;28;20542;-87
2024/01/19 02:45:50;;;;;;;14.40;6.78;;;;;;;-2.08;62.20;96993.50;4949011;28;20442;-87
2024/01/19 02:48:16;;;;;;;17.10;6.95;;;;;;;-2.12;61.68;96999.91;4977056;28;20465;-88
2024/01/19 02:55:46;;;;;;;13.10;6.57;;;;;;;-2.04;60.42;97022.00;5003301;28;19922;-90
2024/01/19 02:58:11;;;;;;;13.35;6.30;;;;;;;-1.78;58.82;97012.28;4968269;28;20058;-89
2024/01/19 03:00:36;;;;;;;13.50;6.97;;;;;;;-2.12;59.75;97013.44;4952164;28;20034;-90
2024/01/19 03:03:02;;;;;;;14.93;6.95;;;;;;;-2.31;60.96;97007.00;4965068;28;20035;-88
2024/01/19 03:05:29;;;;;;;15.00;6.13;;;;;;;-2.41;61.27;96988.56;4989402;28;20030;-89
2024/01/19 03:07:55;;;;;;;14.73;6.70;;;;;;;-2.38;61.28;97003.53;4956712;28;20038;-90
2024/01/19 03:10:23;;;;;;;12.00;6.28;;;;;;;-2.15;62.05;97016.31;4969157;28;20034;-90
2024/01/19 03:12:49;;;;;;;14.60;6.43;;;;;;;-1.90;60.58;97026.41;4973085;28;20107;-89
2024/01/19 03:15:15;;;;;;;13.90;8.07;;;;;;;-1.84;60.00;97027.47;4970616;28;20066;-90
2024/01/19 03:17:41;;;;;;;14.07;6.60;;;;;;;-1.85;59.65;97021.59;4969105;28;20482;-90
2024/01/19 03:20:07;;;;;;;14.57;6.55;;;;;;;-2.08;59.08;96998.59;4957478;28;20030;-90
2024/01/19 03:22:32;;;;;;;14.38;6.65;;;;;;;-1.90;60.06;97037.41;4970948;28;20030;-90
2024/01/19 03:24:57;;;;;;;13.23;6.85;;;;;;;-2.05;59.63;97015.31;4960630;28;20072;-90
2024/01/19 03:27:23;;;;;;;12.45;5.70;;;;;;;-2.37;59.91;96983.91;4961081;28;20034;-89
2024/01/19 03:29:48;;;;;;;15.77;6.75;;;;;;;-2.19;59.30;97001.50;4945068;28;20576;-89
2024/01/19 03:32:14;;;;;;;14.07;6.63;;;;;;;-2.02;59.45;97017.53;4946240;28;20039;-89
2024/01/19 03:34:40;;;;;;;12.77;5.93;;;;;;;-1.99;58.81;97038.38;4965776;28;20208;-90
2024/01/19 03:37:05;;;;;;;13.18;6.47;;;;;;;-2.39;59.15;97003.69;4972636;28;20533;-90
2024/01/19 03:39:34;;;;;;;17.00;7.65;;;;;;;-2.33;59.55;97003.81;4966182;28;20038;-90
2024/01/19 03:42:00;;;;;;;15.63;7.43;;;;;;;-2.09;59.14;97059.03;4951197;28;20549;-89
2024/01/19 03:44:26;;;;;;;14.55;7.18;;;;;;;-2.18;59.11;97042.16;4969318;28;20134;-89
2024/01/19 03:46:51;;;;;;;14.23;7.03;;;;;;;-2.16;58.75;97045.34;4958186;28;20031;-90
2024/01/19 03:49:17;;;;;;;10.95;6.28;;;;;;;-2.28;58.52;97028.81;4964298;28;20086;-88
2024/01/19 03:52:01;;;;;;;12.75;6.57;;;;;;;-2.19;58.91;97052.50;4955872;28;20383;-90
2024/01/19 03:54:27;;;;;;;12.23;6.65;;;;;;;-2.36;58.94;97049.25;4971343;28;20050;-90
2024/01/19 03:56:53;;;;;;;11.90;5.93;;;;;;;-2.48;58.41;97054.72;4956090;28;20430;-89
2024/01/19 03:59:18;;;;;;;14.13;7.07;;;;;;;-2.56;58.88;97046.28;4953214;28;20038;-89
2024/01/19 04:01:45;;;;;;;14.10;6.03;;;;;;;-2.74;58.76;97033.75;4964493;28;20064;-89
2024/01/19 04:04:10;;;;;;;12.05;6.57;;;;;;;-2.83;59.49;97020.22;4947034;28;20035;-90
2024/01/19 04:06:36;;;;;;;14.23;6.00;;;;;;;-2.91;59.66;97000.69;4993756;28;20036;-89
2024/01/19 04:09:01;;;;;;;12.75;6.38;;;;;;;-2.51;59.61;97049.94;4967052;28;20126;-89
2024/01/19 04:11:27;;;;;;;12.73;6.20;;;;;;;-2.49;58.85;97045.47;4981264;28;20030;-90
2024/01/19 04:13:52;;;;;;;12.05;6.07;;;;;;;-2.53;58.65;97045.97;4988446;28;20518;-90
2024/01/19 04:16:18;;;;;;;12.00;7.00;;;;;;;-2.64;59.31;97055.56;4945651;28;20026;-89
2024/01/19 04:18:43;;;;;;;11.23;5.22;;;;;;;-2.77;59.78;97052.72;4952249;28;20533;-90
2024/01/19 04:21:09;;;;;;;13.68;6.13;;;;;;;-2.73;58.73;97064.16;4970677;28;20129;-89
2024/01/19 04:23:35;;;;;;;11.95;5.28;;;;;;;-3.02;59.05;97029.03;4971623;28;20113;-90
2024/01/19 04:26:01;;;;;;;10.18;5.07;;;;;;;-3.07;59.31;97026.19;4952390;28;20081;-88
2024/01/19 04:28:26;;;;;;;13.02;5.75;;;;;;;-3.01;59.56;97028.88;4987519;28;20438;-90
2024/01/19 04:30:52;;;;;;;11.95;5.78;;;;;;;-2.74;58.57;97064.31;4972952;28;20036;-89
2024/01/19 04:33:17;;;;;;;13.63;5.38;;;;;;;-2.88;58.08;97043.66;4970324;28;20345;-89
2024/01/19 04:35:42;;;;;;;13.30;5.15;;;;;;;-2.87;58.01;97055.44;4966209;28;20058;-89
2024/01/19 04:38:08;;;;;;;11.73;5.20;;;;;;;-3.02;58.18;97064.69;4965933;28;20037;-88
2024/01/19 04:40:34;;;;;;;13.30;6.60;;;;;;;-3.21;58.63;97058.19;4967020;28;20117;-88
2024/01/19 04:42:59;;;;;;;12.20;5.28;;;;;;;-3.24;59.00;97082.22;4950518;28;20026;-88
2024/01/19 04:45:25;;;;;;;11.25;6.05;;;;;;;-3.30;60.03;97080.31;4953032;28;20038;-87
2024/01/19 04:47:50;;;;;;;13.90;6.68;;;;;;;-3.26;59.65;97086.66;4963431;28;20039;-88
2024/01/19 04:50:16;;;;;;;12.75;5.65;;;;;;;-3.33;59.17;97078.06;4955712;28;20037;-88
2024/01/19 04:52:41;;;;;;;13.30;5.45;;;;;;;-3.17;59.06;97094.31;4981002;28;20041;-88
2024/01/19 04:55:07;;;;;;;13.82;7.20;;;;;;;-3.34;59.52;97098.59;4962179;28;20092;-88
2024/01/19 04:57:33;;;;;;;13.30;6.85;;;;;;;-3.46;58.50;97096.38;4970204;28;20037;-88
2024/01/19 04:59:58;;;;;;;11.35;5.00;;;;;;;-3.26;58.72;97107.03;4954712;28;20057;-88
2024/01/19 05:02:24;;;;;;;11.82;5.47;;;;;;;-3.30;58.46;97100.66;4950999;28;20031;-88
2024/01/19 05:04:50;;;;;;;12.02;5.00;;;;;;;-3.44;58.64;97098.75;4957535;28;20034;-87
2024/01/19 05:07:15;;;;;;;13.15;5.82;;;;;;;-3.42;59.21;97107.03;4956089;28;20085;-87
2024/01/19 05:09:41;;;;;;;14.90;7.32;;;;;;;-3.47;59.55;97111.78;4970763;28;20529;-87
2024/01/19 05:12:06;;;;;;;15.93;7.15;;;;;;;-3.62;60.22;97112.38;4970441;28;20124;-87
2024/01/19 05:14:32;;;;;;;15.43;8.57;;;;;;;-3.60;61.19;97109.69;4958431;28;20037;-87
2024/01/19 05:16:57;;;;;;;16.58;8.18;;;;;;;-3.42;61.14;97122.28;4956691;28;20394;-87
2024/01/19 05:19:23;;;;;;;22.13;8.38;;;;;;;-3.39;61.50;97130.41;4949564;28;20379;-87
2024/01/19 05:21:48;;;;;;;20.00;9.02;;;;;;;-3.29;61.99;97125.19;4968488;28;20208;-87
2024/01/19 05:24:13;;;;;;;18.73;8.60;;;;;;;-3.08;61.81;97134.13;4967373;28;20103;-87
2024/01/19 05:26:39;;;;;;;20.40;9.98;;;;;;;-3.18;61.45;97123.28;4954796;28;20512;-87
2024/01/19 05:29:04;;;;;;;20.45;10.27;;;;;;;-3.01;62.41;97161.31;4955030;28;20503;-87
2024/01/19 05:31:30;;;;;;;20.05;9.95;;;;;;;-3.09;62.25;97137.59;4973021;28;20057;-88
2024/01/19 05:33:55;;;;;;;24.45;10.32;;;;;;;-3.10;62.97;97148.72;4952973;28;20402;-87
2024/01/19 05:36:21;;;;;;;21.02;10.57;;;;;;;-3.12;63.47;97155.75;4956046;28;20046;-87
2024/01/19 05:38:46;;;;;;;23.27;10.23;;;;;;;-3.04;63.56;97165.94;4968964;28;20042;-88
2024/01/19 05:41:18;;;;;;;21.00;10.52;;;;;;;-2.76;63.96;97176.63;4970739;28;20116;-88
2024/01/19 05:43:44;;;;;;;21.85;9.88;;;;;;;-2.86;63.65;97166.59;4957359;28;20029;-87
2024/01/19 05:46:12;;;;;;;25.73;10.65;;;;;;;-2.83;64.19;97166.28;4961922;28;20034;-88
2024/01/19 05:48:37;;;;;;;28.80;10.85;;;;;;;-2.93;64.33;97163.09;4957283;28;20094;-89
2024/01/19 05:51:03;;;;;;;24.60;10.65;;;;;;;-2.80;64.54;97166.91;4987001;28;20117;-88
2024/01/19 05:53:28;;;;;;;21.63;9.55;;;;;;;-2.64;64.42;97182.19;4967458;28;20034;-89
2024/01/19 05:55:54;;;;;;;25.42;10.75;;;;;;;-2.48;64.42;97197.47;4966609;28;20513;-89
2024/01/19 05:58:19;;;;;;;25.10;11.13;;;;;;;-2.46;64.04;97199.84;4992819;28;20026;-88
2024/01/19 06:00:45;;;;;;;23.25;10.73;;;;;;;-2.37;64.80;97208.28;4995853;28;20081;-91
2024/01/19 06:03:11;;;;;;;20.42;10.00;;;;;;;-2.37;64.85;97203.19;4968242;28;20038;-90
2024/01/19 06:05:36;;;;;;;26.20;11.32;;;;;;;-2.34;64.85;97202.88;5003127;28;20039;-88
2024/01/19 06:08:02;;;;;;;24.67;9.50;;;;;;;-2.31;65.61;97202.56;4973795;28;20034;-90
2024/01/19 06:10:28;;;;;;;27.17;11.13;;;;;;;-2.22;64.76;97211.00;4958714;28;20486;-90
2024/01/19 06:12:54;;;;;;;23.52;10.80;;;;;;;-2.33;64.66;97184.88;4986013;28;20121;-88
2024/01/19 06:15:19;;;;;;;23.27;10.30;;;;;;;-2.45;65.07;97175.94;4989025;28;20046;-90
2024/01/19 06:17:45;;;;;;;21.35;9.60;;;;;;;-2.44;65.67;97182.63;4979362;28;20126;-91
2024/01/19 06:20:11;;;;;;;22.35;10.57;;;;;;;-2.08;64.80;97234.06;4993355;28;20113;-91
2024/01/19 06:22:37;;;;;;;24.42;10.82;;;;;;;-2.14;64.72;97232.19;4973245;28;20034;-88
2024/01/19 06:25:03;;;;;;;25.08;10.68;;;;;;;-2.30;65.03;97199.03;4992858;28;20034;-90
2024/01/19 06:27:29;;;;;;;25.13;10.60;;;;;;;-2.09;65.71;97240.13;4961036;28;20058;-88
2024/01/19 06:29:55;;;;;;;27.33;11.25;;;;;;;-2.20;65.99;97230.25;4972232;28;20035;-89
2024/01/19 06:40:10;;;;;;;;;;;;;;;-1.79;64.99;97265.91;5302261;23;20505;-89
2024/01/19 06:42:44;;;;;;;22.13;9.50;;;;;;;-1.82;65.83;97266.22;5019240;28;19921;-89
2024/01/19 06:45:18;;;;;;;22.65;10.27;;;;;;;-2.02;66.14;97247.94;4990917;28;20406;-89
2024/01/19 06:47:46;;;;;;;25.48;11.35;;;;;;;-1.93;65.75;97261.47;5021367;28;20117;-89
2024/01/19 06:50:19;;;;;;;24.13;10.38;;;;;;;-1.75;64.95;97290.16;5019867;28;20339;-89
2024/01/19 06:52:48;;;;;;;21.77;10.75;;;;;;;-1.91;66.15;97264.66;5017193;28;20042;-89
2024/01/19 06:55:15;;;;;;;26.63;11.80;;;;;;;-1.89;65.62;97278.03;4999426;28;20030;-89
2024/01/19 06:57:43;;;;;;;24.02;10.45;;;;;;;-1.93;65.22;97249.50;5008670;28;20042;-89
2024/01/19 07:00:09;;;;;;;24.63;11.07;;;;;;;-1.74;65.16;97286.63;5012521;28;20546;-89
2024/01/19 07:02:36;;;;;;;22.05;10.68;;;;;;;-1.60;65.48;97303.03;4996157;28;20049;-89
2024/01/19 07:05:04;;;;;;;28.90;11.15;;;;;;;-1.69;65.83;97293.81;5028037;28;20041;-89
2024/01/19 07:07:43;;;;;;;26.92;11.95;;;;;;;-1.46;64.94;97323.75;5027319;28;20052;-89
2024/01/19 07:10:10;;;;;;;26.40;11.68;;;;;;;-1.64;65.82;97313.75;4994079;28;20078;-89
2024/01/19 07:12:44;;;;;;;24.90;11.88;;;;;;;-1.63;64.29;97298.25;4987920;28;20037;-89
2024/01/19 07:15:13;;;;;;;24.52;11.00;;;;;;;-1.47;64.44;97312.72;5026376;28;20045;-89
2024/01/19 07:17:41;;;;;;;24.65;11.18;;;;;;;-1.56;63.38;97311.16;5024815;28;20038;-89
2024/01/19 07:20:11;;;;;;;26.75;10.98;;;;;;;-1.35;63.68;97331.06;4991476;28;20602;-89
2024/01/19 07:22:38;;;;;;;27.13;10.95;;;;;;;-1.54;64.56;97338.13;4975952;28;20034;-89
2024/01/19 07:25:10;;;;;;;23.35;10.70;;;;;;;-1.57;64.97;97341.00;4988275;28;20292;-89
2024/01/19 07:27:38;;;;;;;22.83;10.67;;;;;;;-1.68;64.11;97327.78;5022014;28;20045;-89
2024/01/19 07:30:07;;;;;;;22.83;11.70;;;;;;;-1.86;65.53;97292.25;5004227;28;20367;-89
2024/01/19 07:32:37;;;;;;;28.63;11.70;;;;;;;-1.70;63.64;97315.16;4968001;28;20034;-89
2024/01/19 07:35:08;;;;;;;25.90;11.80;;;;;;;-1.51;64.26;97337.81;5009048;28;20444;-90
2024/01/19 07:37:35;;;;;;;23.52;10.85;;;;;;;-1.41;64.67;97355.47;4972790;28;20043;-89
2024/01/19 07:40:03;;;;;;;26.17;11.85;;;;;;;-1.51;63.25;97357.41;4996748;28;20052;-89
2024/01/19 07:42:30;;;;;;;22.92;10.45;;;;;;;-1.54;65.06;97350.09;4951787;28;20042;-89
2024/01/19 07:44:55;;;;;;;25.58;11.35;;;;;;;-1.57;65.19;97353.75;4986682;28;20533;-89
2024/01/19 07:47:21;;;;;;;23.27;10.55;;;;;;;-1.65;64.87;97341.00;4984889;28;20072;-89
2024/01/19 07:49:46;;;;;;;22.20;10.82;;;;;;;-1.44;64.64;97371.16;4976255;28;20038;-89
2024/01/19 07:52:15;;;;;;;23.63;10.15;;;;;;;-1.77;63.92;97334.66;4968902;28;20034;-89
2024/01/19 07:54:41;;;;;;;21.75;8.82;;;;;;;-1.58;64.89;97367.47;4983427;28;20045;-89
2024/01/19 07:57:07;;;;;;;22.42;11.13;;;;;;;-1.61;64.86;97367.00;4988652;28;20470;-90
2024/01/19 07:59:33;;;;;;;24.73;9.93;;;;;;;-1.67;64.53;97367.66;4988286;28;20045;-89
2024/01/19 08:02:00;;;;;;;21.40;10.07;;;;;;;-1.66;64.41;97369.25;4964839;28;20056;-90
2024/01/19 08:04:26;;;;;;;20.63;9.35;;;;;;;-1.65;64.13;97351.22;4988594;28;20034;-90
2024/01/19 08:06:51;;;;;;;24.83;10.02;;;;;;;-1.39;65.28;97391.06;5006395;28;20048;-89
2024/01/19 08:09:19;;;;;;;23.80;10.15;;;;;;;-1.64;63.89;97359.69;4991515;28;20030;-89
2024/01/19 08:11:46;;;;;;;18.33;8.60;;;;;;;-1.46;63.80;97396.03;4990304;28;20092;-90
2024/01/19 08:14:14;;;;;;;19.80;8.80;;;;;;;-1.45;64.84;97387.41;5004103;28;20034;-90
2024/01/19 08:16:43;;;;;;;20.88;9.40;;;;;;;-1.34;64.54;97384.53;5006499;28;20038;-89
2024/01/19 08:19:09;;;;;;;23.02;9.65;;;;;;;-1.38;64.31;97401.13;4995389;28;20034;-88
2024/01/19 08:21:41;;;;;;;24.63;10.02;;;;;;;-1.31;65.14;97416.59;4986673;28;20034;-89
2024/01/19 08:24:06;;;;;;;21.75;9.60;;;;;;;-1.52;64.47;97383.94;4999716;28;20032;-89
2024/01/19 08:26:32;;;;;;;26.08;9.80;;;;;;;-1.35;63.60;97410.25;5005581;28;20030;-90
2024/01/19 08:29:00;;;;;;;20.73;9.32;;;;;;;-1.24;64.67;97432.06;4973179;28;20037;-89
2024/01/19 08:31:30;;;;;;;22.25;9.23;;;;;;;-1.27;65.37;97427.28;4988700;28;20044;-90
2024/01/19 08:33:59;;;;;;;23.08;9.52;;;;;;;-1.30;65.19;97419.94;4989333;28;20042;-90
2024/01/19 08:36:25;;;;;;;20.95;9.70;;;;;;;-1.09;64.77;97437.31;4980714;28;20157;-90
2024/01/19 08:38:52;;;;;;;19.95;7.85;;;;;;;-1.15;64.80;97418.31;4987377;28;20053;-89
2024/01/19 08:41:18;;;;;;;20.35;10.15;;;;;;;-1.16;63.70;97426.97;4972964;28;20029;-90
2024/01/19 08:43:45;;;;;;;22.65;10.48;;;;;;;-1.10;64.71;97425.50;4974365;28;20041;-90
2024/01/19 08:46:11;;;;;;;25.85;9.48;;;;;;;-0.87;64.78;97451.16;5004259;28;20058;-90
2024/01/19 08:48:37;;;;;;;23.77;9.48;;;;;;;-1.04;64.50;97430.75;4978665;28;20033;-90
2024/01/19 08:51:02;;;;;;;21.75;10.02;;;;;;;-0.91;63.57;97442.22;4971948;28;20478;-90
2024/01/19 08:53:29;;;;;;;21.35;9.43;;;;;;;-0.74;64.58;97459.09;4985897;28;20034;-90
2024/01/19 08:55:55;;;;;;;21.98;9.65;;;;;;;-0.84;63.63;97438.84;5010522;28;20041;-90
2024/01/19 08:58:20;;;;;;;23.83;10.07;;;;;;;-0.79;64.47;97448.56;5014950;28;20057;-90
2024/01/19 09:19:16;;;;;;;29.83;12.20;;;;;;;-0.53;64.21;97488.44;5784856;23;20131;-89
2024/01/19 09:21:44;;;;;;;28.85;11.30;;;;;;;-0.56;64.11;97489.56;4994854;28;20036;-90
2024/01/19 09:24:11;;;;;;;26.05;10.45;;;;;;;-0.45;64.71;97511.41;5013038;28;20339;-90
2024/01/19 09:26:36;;;;;;;28.92;10.75;;;;;;;-0.33;64.83;97514.41;4996128;28;20037;-91
2024/01/19 09:29:02;;;;;;;27.30;10.57;;;;;;;-0.31;64.45;97508.19;4996821;28;20033;-90
2024/01/19 09:31:27;;;;;;;30.60;12.07;;;;;;;-0.19;64.52;97531.63;4997740;28;20034;-90
2024/01/19 09:33:53;;;;;;;29.63;12.90;;;;;;;-0.18;64.77;97537.56;5013172;28;20037;-90
2024/01/19 09:36:18;;;;;;;27.98;12.02;;;;;;;-0.27;63.17;97519.66;5013002;28;20525;-90
2024/01/19 09:38:44;;;;;;;27.73;10.57;;;;;;;-0.21;64.74;97523.31;5012448;28;20037;-90
2024/01/19 09:41:34;;;;;;;28.88;12.32;;;;;;;-0.08;64.55;97553.50;4994453;28;20149;-90
2024/01/19 09:44:01;;;;;;;26.75;11.45;;;;;;;0.04;64.51;97552.16;5013031;28;20543;-90
2024/01/19 09:46:29;;;;;;;28.27;11.65;;;;;;;-0.01;64.03;97555.22;5004215;28;20116;-90
2024/01/19 09:49:00;;;;;;;24.05;10.57;;;;;;;-0.01;62.83;97534.75;4997270;28;20044;-91
2024/01/19 09:51:33;;;;;;;22.02;10.45;;;;;;;0.10;64.19;97551.47;5014842;28;20594;-90
2024/01/19 09:53:59;;;;;;;25.85;10.07;;;;;;;0.23;63.94;97575.75;5013279;28;20588;-90
2024/01/19 09:56:25;;;;;;;26.30;10.52;;;;;;;-0.07;63.58;97539.72;4995697;28;20041;-90
2024/01/19 09:58:54;;;;;;;30.80;14.63;;;;;;;-0.20;64.01;97535.16;5014052;28;20029;-90
2024/01/19 10:01:20;;;;;;;21.67;10.20;;;;;;;0.11;63.14;97599.16;5011748;28;20398;-90
2024/01/19 10:03:45;;;;;;;24.50;9.93;;;;;;;0.11;64.60;97581.25;4999004;28;20026;-90
2024/01/19 10:06:11;;;;;;;25.83;11.20;;;;;;;0.15;64.85;97582.50;5003974;28;20042;-90
2024/01/19 10:08:41;;;;;;;30.85;12.70;;;;;;;0.49;64.31;97614.66;5030849;28;20060;-90
2024/01/19 10:30:07;;;;;;;24.33;11.25;;;;;;;0.59;64.52;97632.38;4996536;28;20126;-91
2024/01/19 10:32:32;;;;;;;25.30;11.20;;;;;;;0.37;64.21;97605.75;4983543;28;20069;-90
2024/01/19 10:35:07;;;;;;;24.38;11.27;;;;;;;0.52;64.75;97616.09;4990857;28;20076;-90
2024/01/19 10:37:33;;;;;;;24.55;11.23;;;;;;;0.47;64.17;97619.16;4965313;28;20114;-90
2024/01/19 11:08:24;;;;;;;;;;;;;;;1.16;65.21;97644.00;4989538;28;20378;-91
2024/01/19 11:10:49;;;;;;;25.95;11.00;;;;;;;0.89;65.20;97632.50;4977448;28;20369;-91
2024/01/19 11:13:16;;;;;;;28.05;11.85;;;;;;;0.84;65.97;97619.41;4970535;28;20026;-91
2024/01/19 11:15:51;;;;;;;25.85;10.55;;;;;;;1.00;65.19;97619.28;4976218;28;20070;-91
2024/01/19 11:18:16;;;;;;;;;;;;;;;1.29;64.71;97633.19;4968209;28;20058;-92
2024/01/19 12:09:05;;;;;;;18.25;7.32;;;;;;;1.28;64.08;97665.72;5720732;23;20082;-91
2024/01/19 12:11:32;;;;;;;15.75;6.80;;;;;;;1.29;64.02;97669.09;4944617;29;20126;-92
2024/01/19 12:14:00;;;;;;;14.63;7.72;;;;;;;1.18;63.90;97642.06;4955141;29;20031;-92
2024/01/19 12:16:26;;;;;;;16.83;7.68;;;;;;;1.19;64.32;97658.28;4957447;28;20058;-91
2024/01/19 12:18:55;;;;;;;16.88;7.38;;;;;;;1.08;64.92;97633.81;4954254;29;20042;-90
2024/01/19 13:37:45;;;;;;;16.42;7.63;;;;;;;1.59;64.15;97680.19;6091726;23;20035;-88
2024/01/19 17:11:22;;;;;;;16.00;7.65;;;;;;;1.02;66.11;97898.63;5016180;28;20714;-90
2024/01/19 17:13:47;;;;;;;15.20;7.30;;;;;;;0.96;65.89;97889.84;4978595;28;20454;-90
2024/01/19 17:16:13;;;;;;;14.30;7.10;;;;;;;0.84;65.72;97879.13;4968304;28;20095;-90
2024/01/19 17:18:38;;;;;;;15.15;7.00;;;;;;;0.88;66.35;97893.19;4983480;28;20021;-90
2024/01/19 17:21:04;;;;;;;16.63;7.53;;;;;;;0.69;67.08;97875.63;4968870;28;20029;-91
2024/01/19 17:23:29;;;;;;;14.27;6.53;;;;;;;1.01;66.09;97922.66;5003437;28;20334;-91
2024/01/19 17:25:55;;;;;;;13.57;7.07;;;;;;;0.78;65.84;97882.34;4985340;28;20433;-90
2024/01/19 17:28:20;;;;;;;13.50;6.85;;;;;;;0.84;66.34;97901.38;4983642;28;20030;-90
2024/01/19 17:30:45;;;;;;;16.40;7.97;;;;;;;1.01;65.81;97930.34;4987674;28;20021;-91
2024/01/19 17:33:12;;;;;;;14.60;7.28;;;;;;;0.96;66.74;97922.34;5007767;28;20021;-90
2024/01/19 17:35:38;;;;;;;15.73;6.93;;;;;;;1.00;66.22;97936.44;4965379;28;20021;-90
2024/01/19 17:38:03;;;;;;;15.32;7.68;;;;;;;0.71;65.83;97887.31;4963751;28;20030;-90
2024/01/19 17:40:29;;;;;;;16.08;7.47;;;;;;;0.90;66.39;97918.69;4974075;28;20033;-90
2024/01/19 17:50:40;;;;;;;;;;;;;;;1.03;66.19;97956.63;5863157;22;20038;-90
2024/01/19 17:56:30;;;;;;;;;;;;;;;1.03;65.76;97972.00;6094786;23;20021;31
2024/01/19 19:03:09;;;;;;;18.33;8.82;;;;;;;0.32;65.86;98002.47;4957932;28;20086;-89
2024/01/19 19:05:34;;;;;;;16.13;7.75;;;;;;;0.37;65.00;98013.03;4927901;29;20039;-90
2024/01/19 19:08:04;;;;;;;15.73;7.07;;;;;;;0.38;65.13;98014.66;4931380;28;20038;-89
2024/01/19 19:10:30;;;;;;;13.70;7.30;;;;;;;0.27;65.23;98020.06;4931498;28;20050;-90
2024/01/19 19:12:56;;;;;;;15.90;6.57;;;;;;;0.27;64.71;98012.38;4931497;28;20050;-90
2024/01/19 19:15:22;;;;;;;15.60;6.63;;;;;;;0.22;64.38;98010.28;4955449;28;20728;-90
2024/01/19 19:17:47;;;;;;;12.40;7.05;;;;;;;0.23;64.55;98040.06;4947110;28;20038;-90
2024/01/19 20:09:39;;;;;;;19.33;10.10;;;;;;;-0.48;63.62;98064.25;5971409;23;20137;-88
2024/01/19 20:12:04;;;;;;;15.18;8.85;;;;;;;-0.35;64.38;98094.56;4892478;29;20484;-89
2024/01/19 20:14:30;;;;;;;18.52;9.48;;;;;;;-0.43;64.27;98085.06;4891680;29;20122;-89
2024/01/19 20:16:55;;;;;;;16.65;8.30;;;;;;;-0.54;63.48;98067.44;4878368;29;20135;-89
2024/01/19 20:19:21;;;;;;;15.40;7.22;;;;;;;-0.52;64.60;98075.75;4892462;29;20039;-88
2024/01/19 20:21:48;;;;;;;16.65;8.52;;;;;;;-0.61;64.46;98062.91;4904734;29;21235;-89
2024/01/19 20:24:13;;;;;;;15.05;7.72;;;;;;;-0.52;64.35;98086.78;4880870;29;20119;-88
2024/01/19 20:26:39;;;;;;;20.55;10.35;;;;;;;-0.70;64.14;98065.56;4907335;29;20494;-89
2024/01/19 20:29:04;;;;;;;15.35;8.23;;;;;;;-0.85;63.66;98045.66;4879183;29;20596;-88
2024/01/19 21:20:34;;;;;;;22.27;12.50;;;;;;;-1.56;62.64;98100.16;5511361;23;20303;-88
2024/01/19 21:22:59;;;;;;;18.58;10.77;;;;;;;-1.61;63.57;98099.78;4894168;29;20047;-87
2024/01/19 21:25:25;;;;;;;19.35;11.38;;;;;;;-1.68;62.78;98086.00;4881877;29;20043;-87
2024/01/19 21:27:50;;;;;;;25.05;15.75;;;;;;;-1.62;63.16;98103.31;4908742;29;20038;-88
2024/01/19 21:30:16;;;;;;;24.98;14.15;;;;;;;-1.71;63.12;98095.56;4907740;29;20094;-87
2024/01/19 21:32:41;;;;;;;22.20;12.23;;;;;;;-1.61;63.32;98117.66;4910895;29;20043;-87
2024/01/19 21:35:07;;;;;;;23.58;12.52;;;;;;;-1.79;62.46;98103.13;4886944;29;20032;-87
2024/01/19 21:37:32;;;;;;;20.92;11.45;;;;;;;-1.88;62.88;98096.31;4857251;29;20040;-87
